Time;durP1;ratioP1;P1;durP2;ratioP2;P2;SDS_P1;SDS_P2;PMS_P1;PMS_P2;Temp;Humidity;BMP_temperature;BMP_pressure;BME280_temperature;BME280_humidity;BME280_pressure;Samples;Min_cycle;Max_cycle;Signal;HPM_P1;HPM_P2
2021/11/20 00:08:52;;;;;;;40.90;25.17;;;8.80;99.90;;;;;;6155597;23;20025;-89
2021/11/20 00:11:23;;;;;;;45.88;26.73;;;9.10;99.90;;;;;;6130311;23;20026;-87
2021/11/20 00:13:51;;;;;;;;;;;9.00;99.90;;;;;;6133059;23;20052;-91
2021/11/20 00:16:27;;;;;;;42.10;24.65;;;8.70;99.90;;;;;;6160274;23;19955;-90
2021/11/20 00:19:04;;;;;;;46.28;27.80;;;8.80;99.90;;;;;;6135093;23;20028;-89
2021/11/20 00:32:29;;;;;;;36.78;24.40;;;8.90;99.90;;;;;;6129151;23;20030;-84
2021/11/20 00:35:00;;;;;;;40.30;23.83;;;8.70;99.90;;;;;;6104465;23;20117;-84
2021/11/20 00:37:28;;;;;;;38.30;22.15;;;8.90;99.90;;;;;;6156949;23;20021;-86
2021/11/20 00:39:55;;;;;;;38.28;22.55;;;8.60;99.90;;;;;;6129998;23;20022;-82
2021/11/20 00:42:22;;;;;;;37.30;23.05;;;8.80;99.90;;;;;;6155061;23;20388;-83
2021/11/20 00:44:50;;;;;;;35.53;23.20;;;8.70;99.90;;;;;;6129082;23;20017;-84
2021/11/20 00:47:19;;;;;;;311.08;154.43;;;9.00;99.90;;;;;;6104018;23;20056;-83
2021/11/20 00:49:50;;;;;;;108.70;62.83;;;9.10;99.90;;;;;;6129679;23;20100;-87
2021/11/20 00:52:18;;;;;;;53.72;32.08;;;9.30;99.90;;;;;;6131009;23;20045;-82
2021/11/20 00:54:46;;;;;;;39.38;22.85;;;9.20;99.90;;;;;;6130595;23;20045;-86
2021/11/20 00:57:13;;;;;;;41.65;23.45;;;9.20;99.90;;;;;;6130969;23;20045;-83
2021/11/20 00:59:42;;;;;;;34.80;21.88;;;9.20;99.90;;;;;;6132168;23;20385;-80
2021/11/20 01:02:10;;;;;;;35.05;21.10;;;9.20;99.90;;;;;;6128678;23;20025;-86
2021/11/20 01:04:38;;;;;;;34.97;21.55;;;9.20;99.90;;;;;;6155002;23;20068;-86
2021/11/20 01:07:07;;;;;;;30.52;19.15;;;9.20;99.90;;;;;;6104467;23;20355;-79
2021/11/20 01:09:39;;;;;;;38.83;20.50;;;8.90;99.90;;;;;;6128451;23;20280;-82
2021/11/20 01:12:17;;;;;;;28.98;18.15;;;8.60;99.90;;;;;;6104240;23;20048;-82
2021/11/20 01:14:46;;;;;;;29.30;19.10;;;8.40;99.90;;;;;;6127840;23;20029;-82
2021/11/20 01:17:15;;;;;;;29.60;18.48;;;8.70;99.90;;;;;;6128148;23;20073;-83
2021/11/20 01:19:43;;;;;;;36.47;19.40;;;8.90;99.90;;;;;;6155287;23;20013;-84
2021/11/20 01:22:14;;;;;;;34.40;18.60;;;9.10;99.90;;;;;;6154058;23;20025;-83
2021/11/20 01:24:43;;;;;;;34.63;18.73;;;9.10;99.90;;;;;;6128270;23;20023;-80
2021/11/20 01:27:11;;;;;;;27.02;17.08;;;9.20;99.90;;;;;;6154134;23;20089;-81
2021/11/20 01:29:39;;;;;;;29.20;18.45;;;9.20;99.90;;;;;;6127949;23;20053;-82
2021/11/20 01:32:07;;;;;;;31.65;18.17;;;9.30;99.90;;;;;;6127562;23;20052;-79
2021/11/20 01:34:34;;;;;;;31.08;18.60;;;9.30;99.90;;;;;;6128025;23;20049;-83
2021/11/20 01:37:03;;;;;;;32.03;18.20;;;9.30;99.90;;;;;;6127468;23;20021;-81
2021/11/20 01:39:34;;;;;;;33.17;19.63;;;9.40;99.90;;;;;;6154493;23;20048;-81
2021/11/20 01:42:08;;;;;;;37.95;17.42;;;9.40;99.90;;;;;;6127494;23;20022;-85
2021/11/20 01:44:38;;;;;;;27.05;17.60;;;9.40;99.90;;;;;;6128865;23;20415;-80
2021/11/20 01:47:21;;;;;;;29.23;17.75;;;9.40;99.90;;;;;;6129257;23;20023;-85
2021/11/20 01:50:00;;;;;;;24.42;15.98;;;9.40;99.90;;;;;;6130264;23;20085;-86
2021/11/20 01:52:46;;;;;;;28.85;17.20;;;9.30;99.90;;;;;;6129708;23;20041;-82
2021/11/20 01:55:26;;;;;;;28.52;16.25;;;9.40;99.90;;;;;;6154624;23;20025;-80
2021/11/20 01:58:13;;;;;;;26.67;15.02;;;9.40;99.90;;;;;;6153829;23;20029;-82
2021/11/20 02:00:55;;;;;;;21.42;14.35;;;9.10;99.90;;;;;;6129727;23;20021;-84
2021/11/20 02:03:49;;;;;;;22.48;13.68;;;9.30;99.90;;;;;;6130912;23;20032;-87
2021/11/20 02:06:22;;;;;;;20.85;14.10;;;9.20;99.90;;;;;;6132705;23;20029;-87
2021/11/20 02:09:24;;;;;;;27.80;16.45;;;9.20;99.90;;;;;;6131219;23;20024;-83
2021/11/20 02:11:53;;;;;;;22.20;15.57;;;9.30;99.90;;;;;;6130008;23;20069;-83
2021/11/20 02:14:23;;;;;;;27.08;15.60;;;9.30;99.90;;;;;;6156380;23;20024;-80
2021/11/20 02:16:56;;;;;;;25.52;15.07;;;9.40;99.90;;;;;;6130463;23;20021;-84
2021/11/20 02:22:36;;;;;;;26.35;15.75;;;9.40;99.90;;;;;;6158625;23;20331;-91
2021/11/20 02:25:03;;;;;;;23.95;14.70;;;9.30;99.90;;;;;;6159728;23;20411;-90
2021/11/20 02:27:52;;;;;;;24.88;14.48;;;9.40;99.90;;;;;;6135734;23;20060;-88
2021/11/20 02:30:44;;;;;;;24.33;15.15;;;9.50;99.90;;;;;;6134712;23;20076;-90
2021/11/20 02:33:16;;;;;;;26.58;15.98;;;9.40;99.90;;;;;;6110687;23;20049;-90
2021/11/20 02:36:08;;;;;;;27.83;14.88;;;9.50;99.90;;;;;;6107895;23;20322;-83
2021/11/20 02:39:17;;;;;;;26.17;14.43;;;9.50;99.90;;;;;;6132979;23;20027;-84
2021/11/20 02:41:50;;;;;;;20.85;13.15;;;9.40;99.90;;;;;;6133918;23;20024;-89
2021/11/20 02:44:59;;;;;;;21.48;14.15;;;9.40;99.90;;;;;;6131679;23;20410;-87
2021/11/20 02:47:31;;;;;;;21.75;12.38;;;9.40;99.90;;;;;;6133173;23;20073;-91
2021/11/20 02:51:02;;;;;;;21.40;13.48;;;9.30;99.90;;;;;;6049063;23;20029;-84
2021/11/20 02:53:44;;;;;;;30.40;16.90;;;9.50;99.90;;;;;;6129665;23;20068;-85
2021/11/20 02:56:17;;;;;;;27.85;17.55;;;9.50;99.90;;;;;;6130907;23;20448;-87
2021/11/20 02:58:44;;;;;;;32.80;18.30;;;9.50;99.90;;;;;;6129951;23;20017;-86
2021/11/20 03:01:35;;;;;;;32.92;19.30;;;9.40;99.90;;;;;;6130751;23;20025;-86
2021/11/20 03:04:07;;;;;;;33.33;20.13;;;9.30;99.90;;;;;;6130687;23;20021;-86
2021/11/20 03:06:34;;;;;;;32.83;20.50;;;9.40;99.90;;;;;;6101311;23;20025;-85
2021/11/20 03:09:12;;;;;;;34.97;20.83;;;9.50;99.90;;;;;;6125527;23;20049;-86
2021/11/20 03:11:43;;;;;;;38.72;21.98;;;9.40;99.90;;;;;;6100858;23;20104;-85
2021/11/20 03:14:14;;;;;;;40.50;22.00;;;9.30;99.90;;;;;;6101332;23;20024;-85
2021/11/20 03:16:48;;;;;;;38.35;22.77;;;9.30;99.90;;;;;;6126142;23;20069;-88
2021/11/20 03:19:17;;;;;;;34.90;20.58;;;9.30;99.90;;;;;;6126417;23;20072;-87
2021/11/20 03:21:49;;;;;;;39.20;21.38;;;9.30;99.90;;;;;;6126724;23;20032;-87
2021/11/20 03:32:12;;;;;;;39.45;21.42;;;9.10;99.90;;;;;;6040494;23;20053;-86
2021/11/20 03:34:42;;;;;;;34.75;21.35;;;9.10;99.90;;;;;;6101566;23;20017;-89
2021/11/20 03:37:11;;;;;;;34.17;20.75;;;9.20;99.90;;;;;;6126896;23;20022;-85
2021/11/20 03:39:39;;;;;;;33.83;20.92;;;9.10;99.90;;;;;;6125607;23;20060;-89
2021/11/20 03:42:07;;;;;;;35.30;20.67;;;9.00;99.90;;;;;;6100921;23;20045;-89
2021/11/20 03:44:35;;;;;;;35.53;19.73;;;9.00;99.90;;;;;;6126506;23;20404;-87
2021/11/20 03:47:03;;;;;;;30.25;18.40;;;8.90;99.90;;;;;;6126002;23;20046;-89
2021/11/20 03:49:31;;;;;;;33.58;18.77;;;8.90;99.90;;;;;;6127093;23;20384;-89
2021/11/20 03:51:58;;;;;;;29.30;17.40;;;8.90;99.90;;;;;;6128613;23;20092;-91
2021/11/20 03:54:26;;;;;;;31.13;17.88;;;8.90;99.90;;;;;;6129073;23;20321;-86
2021/11/20 03:56:54;;;;;;;32.90;17.67;;;8.90;99.90;;;;;;6131133;23;20032;-87
2021/11/20 03:59:22;;;;;;;28.48;17.50;;;8.90;99.90;;;;;;6133283;23;20077;-93
2021/11/20 04:01:50;;;;;;;27.20;18.15;;;9.00;99.90;;;;;;6137078;23;20069;-94
2021/11/20 04:04:20;;;;;;;28.65;17.98;;;9.10;99.90;;;;;;6126611;23;20056;-88
2021/11/20 04:06:48;;;;;;;30.83;19.08;;;9.00;99.90;;;;;;6126206;23;20400;-85
2021/11/20 04:09:15;;;;;;;31.13;20.20;;;9.10;99.90;;;;;;6125952;23;20037;-86
2021/11/20 04:11:45;;;;;;;34.28;19.48;;;9.00;99.90;;;;;;6126993;23;20018;-90
2021/11/20 04:14:14;;;;;;;43.42;21.45;;;9.00;99.90;;;;;;6125898;23;20049;-89
2021/11/20 04:16:42;;;;;;;37.80;20.75;;;9.00;99.90;;;;;;6126009;23;20018;-87
2021/11/20 04:19:10;;;;;;;34.03;20.80;;;9.00;99.90;;;;;;6125116;23;20048;-86
2021/11/20 04:21:42;;;;;;;34.75;21.95;;;9.10;99.90;;;;;;6124346;23;20033;-85
2021/11/20 04:24:15;;;;;;;34.08;20.60;;;8.90;99.90;;;;;;6125587;23;20077;-84
2021/11/20 04:26:46;;;;;;;36.95;20.02;;;8.60;99.90;;;;;;6100974;23;20022;-86
2021/11/20 04:29:36;;;;;;;40.00;21.05;;;8.50;99.90;;;;;;6124649;23;20065;-86
2021/11/20 04:32:28;;;;;;;34.63;21.58;;;8.60;99.90;;;;;;6100325;23;20049;-87
2021/11/20 04:34:56;;;;;;;37.00;20.92;;;8.80;99.90;;;;;;6101372;23;20045;-85
2021/11/20 04:37:26;;;;;;;28.67;19.10;;;8.90;99.90;;;;;;6124346;23;20062;-83
2021/11/20 04:39:53;;;;;;;34.40;20.15;;;8.70;99.90;;;;;;6125168;23;20041;-86
2021/11/20 04:42:21;;;;;;;35.92;19.65;;;8.60;99.90;;;;;;6123860;23;20078;-83
2021/11/20 04:44:48;;;;;;;30.35;19.95;;;8.90;99.90;;;;;;6099461;23;20022;-84
2021/11/20 04:47:16;;;;;;;36.25;20.80;;;8.50;99.90;;;;;;6126096;23;20022;-88
2021/11/20 04:49:44;;;;;;;31.88;20.48;;;8.60;99.90;;;;;;6128942;23;20025;-94
2021/11/20 04:52:13;;;;;;;31.38;18.55;;;8.80;99.90;;;;;;6101962;23;20391;-85
2021/11/20 04:54:41;;;;;;;37.60;18.83;;;8.90;99.90;;;;;;6123718;23;20104;-84
2021/11/20 04:57:27;;;;;;;27.45;17.60;;;8.60;99.90;;;;;;6126269;23;20344;-86
2021/11/20 04:59:55;;;;;;;26.40;17.80;;;8.70;99.90;;;;;;6127221;23;20105;-90
2021/11/20 05:02:22;;;;;;;32.67;18.00;;;8.80;99.90;;;;;;6101298;23;20026;-86
2021/11/20 05:04:54;;;;;;;34.38;18.65;;;9.00;99.90;;;;;;6100809;23;20028;-85
2021/11/20 05:07:31;;;;;;;34.30;19.25;;;9.10;99.90;;;;;;6123452;23;20105;-86
2021/11/20 05:09:58;;;;;;;26.95;15.88;;;9.00;99.90;;;;;;6124138;23;20025;-85
2021/11/20 05:12:40;;;;;;;26.25;15.95;;;8.70;99.90;;;;;;6102568;23;20018;-87
2021/11/20 05:15:10;;;;;;;29.63;16.95;;;8.60;99.90;;;;;;6128080;23;20025;-91
2021/11/20 05:17:37;;;;;;;31.00;17.48;;;8.70;99.90;;;;;;6128741;23;20022;-87
2021/11/20 05:24:01;;;;;;;35.15;18.63;;;9.10;99.90;;;;;;6125774;23;20010;-86
2021/11/20 05:26:29;;;;;;;29.05;17.48;;;9.10;99.90;;;;;;6126906;23;20404;-88
2021/11/20 05:29:07;;;;;;;34.00;19.45;;;9.10;99.90;;;;;;6127241;23;20348;-84
2021/11/20 05:31:38;;;;;;;30.05;18.23;;;9.20;99.90;;;;;;6101527;23;20452;-84
2021/11/20 05:34:07;;;;;;;34.03;19.42;;;9.20;99.90;;;;;;6125467;23;20096;-90
2021/11/20 05:36:35;;;;;;;33.78;19.38;;;9.10;99.90;;;;;;6126474;23;20092;-88
2021/11/20 05:51:32;;;;;;;27.40;17.48;;;9.20;99.90;;;;;;6126941;23;20316;-83
2021/11/20 05:53:59;;;;;;;28.77;16.60;;;9.20;99.90;;;;;;6103672;23;20045;-92
2021/11/20 05:56:27;;;;;;;32.03;17.15;;;8.80;99.90;;;;;;6125096;23;20329;-85
2021/11/20 05:59:15;;;;;;;26.98;16.88;;;9.10;99.90;;;;;;6103430;23;20101;-83
2021/11/20 06:02:10;;;;;;;33.65;16.92;;;9.20;99.90;;;;;;6099868;23;20026;-85
2021/11/20 06:04:41;;;;;;;27.27;14.57;;;9.20;99.90;;;;;;6124918;23;20018;-83
2021/11/20 06:07:11;;;;;;;29.50;16.58;;;9.30;99.90;;;;;;6123208;23;20022;-85
2021/11/20 06:09:39;;;;;;;28.10;17.27;;;9.00;99.90;;;;;;6124748;23;20208;-82
2021/11/20 06:12:09;;;;;;;26.77;13.93;;;9.00;99.90;;;;;;6123459;23;20042;-85
2021/11/20 06:14:37;;;;;;;31.30;16.17;;;9.10;99.90;;;;;;6123769;23;20452;-85
2021/11/20 06:17:07;;;;;;;29.98;17.25;;;9.30;99.90;;;;;;6099951;23;20026;-86
2021/11/20 06:19:47;;;;;;;21.70;13.18;;;9.30;99.90;;;;;;6099054;23;20056;-87
2021/11/20 06:22:20;;;;;;;23.60;13.65;;;9.40;99.90;;;;;;6123792;23;20020;-87
2021/11/20 06:25:38;;;;;;;29.52;15.60;;;9.50;99.90;;;;;;6125085;23;20018;-85
2021/11/20 06:28:11;;;;;;;26.25;16.17;;;9.40;99.90;;;;;;6123407;23;20118;-85
2021/11/20 06:30:40;;;;;;;28.08;16.58;;;9.30;99.90;;;;;;6098891;23;20033;-84
2021/11/20 06:33:07;;;;;;;22.52;14.57;;;9.40;99.90;;;;;;6124016;23;20018;-89
2021/11/20 06:35:48;;;;;;;27.40;15.68;;;9.50;99.90;;;;;;6122640;23;20089;-87
2021/11/20 06:39:21;;;;;;;28.15;15.50;;;9.40;99.90;;;;;;6129187;23;20017;-92
2021/11/20 06:42:06;;;;;;;24.13;14.95;;;9.50;99.90;;;;;;6103313;23;20101;-90
2021/11/20 06:44:40;;;;;;;24.80;15.13;;;9.50;99.90;;;;;;6101581;23;20022;-92
2021/11/20 06:50:34;;;;;;;32.95;16.25;;;9.70;99.90;;;;;;6128993;23;20344;-90
2021/11/20 06:53:05;;;;;;;35.92;16.85;;;9.70;99.90;;;;;;6126423;23;20018;-84
2021/11/20 06:55:42;;;;;;;;;;;9.80;99.90;;;;;;6128219;23;20018;-85
2021/11/20 07:00:57;;;;;;;45.97;20.90;;;9.60;99.90;;;;;;6129353;23;20038;-91
2021/11/20 07:03:53;;;;;;;41.63;21.08;;;9.70;99.90;;;;;;6127167;23;20076;-88
2021/11/20 07:06:38;;;;;;;47.95;21.98;;;9.80;99.90;;;;;;6135510;23;20052;-88
2021/11/20 07:09:06;;;;;;;46.08;22.25;;;10.00;99.90;;;;;;6132917;23;20021;-89
2021/11/20 07:11:33;;;;;;;49.95;23.45;;;10.30;99.90;;;;;;6157329;23;20082;-88
2021/11/20 07:14:01;;;;;;;48.58;23.70;;;10.60;99.90;;;;;;6157547;23;20414;-83
2021/11/20 07:16:29;;;;;;;44.20;20.55;;;10.70;99.90;;;;;;6132406;23;20096;-88
2021/11/20 07:18:58;;;;;;;42.67;19.70;;;11.00;99.90;;;;;;6133882;23;20024;-87
2021/11/20 07:21:27;;;;;;;47.35;19.77;;;11.00;99.90;;;;;;6130008;23;20024;-87
2021/11/20 07:23:57;;;;;;;38.67;20.63;;;11.00;99.90;;;;;;6130703;23;20329;-86
2021/11/20 07:26:26;;;;;;;38.28;18.70;;;10.90;99.90;;;;;;6159861;23;20100;-90
2021/11/20 07:28:54;;;;;;;34.50;18.17;;;10.80;99.90;;;;;;6132618;23;20066;-93
2021/11/20 07:31:43;;;;;;;39.20;20.20;;;10.70;99.90;;;;;;6137896;23;20390;-94
2021/11/20 07:34:15;;;;;;;37.17;18.83;;;11.10;99.90;;;;;;6109772;23;20018;-91
2021/11/20 07:36:43;;;;;;;32.42;17.90;;;11.50;99.90;;;;;;6133453;23;20072;-84
2021/11/20 07:39:14;;;;;;;36.63;17.65;;;11.70;99.90;;;;;;6110189;23;20026;-91
2021/11/20 07:41:43;;;;;;;30.95;15.20;;;11.70;99.90;;;;;;6133193;23;20089;-86
2021/11/20 07:44:11;;;;;;;31.95;16.73;;;11.90;99.90;;;;;;6106788;23;20026;-86
2021/11/20 07:46:54;;;;;;;38.92;17.42;;;12.00;99.90;;;;;;6130170;23;20100;-85
2021/11/20 07:49:21;;;;;;;31.75;16.33;;;12.00;99.90;;;;;;6105794;23;20464;-86
2021/11/20 07:51:51;;;;;;;32.78;16.20;;;12.10;99.90;;;;;;6155982;23;20024;-85
2021/11/20 07:54:24;;;;;;;32.70;17.13;;;11.80;99.90;;;;;;6129635;23;20085;-85
2021/11/20 07:56:52;;;;;;;30.27;16.67;;;12.10;99.90;;;;;;6129168;23;20536;-86
2021/11/20 07:59:25;;;;;;;43.50;18.08;;;12.20;99.90;;;;;;6129754;23;20321;-86
2021/11/20 08:01:53;;;;;;;37.95;18.75;;;12.20;99.90;;;;;;6105082;23;20105;-86
2021/11/20 08:04:20;;;;;;;40.83;20.45;;;12.10;99.90;;;;;;6155298;23;20072;-86
2021/11/20 08:06:50;;;;;;;37.80;18.17;;;12.40;99.90;;;;;;6154958;23;20018;-86
2021/11/20 08:09:17;;;;;;;40.17;19.85;;;12.40;99.90;;;;;;6104533;23;20022;-82
2021/11/20 08:11:44;;;;;;;35.10;18.00;;;12.60;99.90;;;;;;6154951;23;20028;-85
2021/11/20 08:14:12;;;;;;;39.67;18.33;;;12.90;99.90;;;;;;6154943;23;20020;-83
2021/11/20 08:16:40;;;;;;;26.95;15.38;;;13.00;99.90;;;;;;6154403;23;20180;-85
2021/11/20 08:19:11;;;;;;;27.38;15.45;;;13.30;99.90;;;;;;6129027;23;20018;-84
2021/11/20 08:21:38;;;;;;;;;;;13.50;99.90;;;;;;6129772;23;20044;-84
2021/11/20 08:24:06;;;;;;;26.25;13.30;;;13.30;99.90;;;;;;6104826;23;20280;-86
2021/11/20 08:26:36;;;;;;;24.95;13.55;;;13.40;99.90;;;;;;6128887;23;20121;-83
2021/11/20 08:29:05;;;;;;;23.40;14.17;;;13.70;99.90;;;;;;6128920;23;20021;-84
2021/11/20 08:31:34;;;;;;;27.38;14.35;;;14.30;99.30;;;;;;6154619;23;20041;-81
2021/11/20 08:34:02;;;;;;;27.92;14.32;;;14.70;98.30;;;;;;6128094;23;20022;-82
2021/11/20 08:36:30;;;;;;;23.40;14.77;;;15.10;97.60;;;;;;6128690;23;20346;-83
2021/11/20 08:38:57;;;;;;;31.10;15.35;;;15.30;96.90;;;;;;6129368;23;20384;-91
2021/11/20 08:41:24;;;;;;;26.65;15.52;;;15.60;95.80;;;;;;6129190;23;20028;-83
2021/11/20 08:43:52;;;;;;;31.58;15.15;;;15.50;95.30;;;;;;6154623;23;20459;-85
2021/11/20 08:46:20;;;;;;;23.83;13.88;;;15.10;95.70;;;;;;6104483;23;20359;-84
2021/11/20 08:48:47;;;;;;;24.25;15.82;;;15.00;95.80;;;;;;6154528;23;20014;-85
2021/11/20 08:51:19;;;;;;;19.42;10.73;;;14.70;97.20;;;;;;6156406;23;20072;-90
2021/11/20 08:53:47;;;;;;;15.70;8.60;;;14.70;96.90;;;;;;6130050;23;20100;-86
2021/11/20 08:56:15;;;;;;;12.80;9.15;;;14.50;96.50;;;;;;6130054;23;20017;-93
2021/11/20 08:58:42;;;;;;;17.63;10.55;;;14.40;97.30;;;;;;6155441;23;20018;-85
2021/11/20 09:01:09;;;;;;;19.52;12.82;;;14.10;97.60;;;;;;6156157;23;20033;-83
2021/11/20 09:03:43;;;;;;;23.83;11.23;;;13.90;98.30;;;;;;6130866;23;20021;-90
2021/11/20 09:06:22;;;;;;;32.90;12.98;;;14.20;97.70;;;;;;6106621;23;20395;-85
2021/11/20 09:08:51;;;;;;;20.55;12.57;;;14.50;97.20;;;;;;6105239;23;20021;-88
2021/11/20 09:11:48;;;;;;;21.45;12.80;;;14.70;96.80;;;;;;6132247;23;20392;-86
2021/11/20 09:14:39;;;;;;;22.08;14.13;;;14.60;96.80;;;;;;6131471;23;20104;-92
2021/11/20 09:17:08;;;;;;;89.07;55.38;;;14.50;96.60;;;;;;6104639;23;20021;-83
2021/11/20 09:19:37;;;;;;;61.65;35.50;;;14.60;96.90;;;;;;6104334;23;20121;-84
2021/11/20 09:22:08;;;;;;;43.10;25.88;;;14.70;97.40;;;;;;6128806;23;20021;-87
2021/11/20 09:24:38;;;;;;;38.08;22.33;;;14.40;97.10;;;;;;6128667;23;20096;-84
2021/11/20 09:27:26;;;;;;;49.65;28.20;;;14.70;97.40;;;;;;6133337;23;20022;-85
2021/11/20 09:29:53;;;;;;;102.72;53.00;;;14.40;97.50;;;;;;6154988;23;20085;-83
2021/11/20 09:32:20;;;;;;;82.28;48.00;;;14.10;99.90;;;;;;6103868;23;20032;-84
2021/11/20 09:34:48;;;;;;;59.92;33.45;;;14.10;99.90;;;;;;6155091;23;20017;-84
2021/11/20 09:37:16;;;;;;;56.22;32.78;;;14.40;99.90;;;;;;6155575;23;20021;-87
2021/11/20 09:39:58;;;;;;;51.35;28.33;;;14.80;99.90;;;;;;6086661;23;20104;-85
2021/11/20 09:42:27;;;;;;;41.60;26.08;;;14.90;99.90;;;;;;6153809;23;20037;-85
2021/11/20 09:45:01;;;;;;;38.88;20.13;;;14.60;99.90;;;;;;6128897;23;20105;-82
2021/11/20 09:47:41;;;;;;;35.97;20.15;;;14.40;99.90;;;;;;6154941;23;20065;-90
2021/11/20 09:50:17;;;;;;;33.57;19.70;;;14.40;99.90;;;;;;6129321;23;20024;-82
2021/11/20 09:52:46;;;;;;;33.17;18.52;;;14.00;99.90;;;;;;6155798;23;20252;-87
2021/11/20 09:55:39;;;;;;;36.88;18.90;;;14.10;99.90;;;;;;6130516;23;20088;-85
2021/11/20 09:58:18;;;;;;;38.33;18.77;;;14.30;99.90;;;;;;6106025;23;20104;-88
2021/11/20 10:01:10;;;;;;;33.60;17.90;;;13.80;99.90;;;;;;6129857;23;20028;-87
2021/11/20 10:03:41;;;;;;;35.03;17.95;;;13.50;99.90;;;;;;6104727;23;20021;-84
2021/11/20 10:06:21;;;;;;;30.00;18.40;;;13.30;99.90;;;;;;6104449;23;20391;-84
2021/11/20 10:09:22;;;;;;;32.13;17.20;;;13.10;99.90;;;;;;6154210;23;20347;-87
2021/11/20 10:11:52;;;;;;;33.10;16.95;;;13.00;99.90;;;;;;6083315;23;20452;-86
2021/11/20 10:18:15;;;;;;;32.63;18.13;;;12.90;99.90;;;;;;6154094;23;20487;-84
2021/11/20 10:21:26;;;;;;;28.45;17.92;;;13.10;99.90;;;;;;6154996;23;20024;-85
2021/11/20 10:28:09;;;;;;;28.10;15.10;;;13.00;99.90;;;;;;6157802;23;20016;-80
2021/11/20 10:30:39;;;;;;;40.92;17.50;;;12.90;99.90;;;;;;6156070;23;20100;-81
2021/11/20 10:33:30;;;;;;;28.02;15.32;;;13.20;99.90;;;;;;6105294;23;20026;-83
2021/11/20 10:36:21;;;;;;;89.18;49.30;;;13.40;99.90;;;;;;6129985;23;20037;-80
2021/11/20 10:39:00;;;;;;;40.72;26.00;;;13.40;99.90;;;;;;6104860;23;20059;-83
2021/11/20 10:41:46;;;;;;;56.15;33.40;;;13.60;99.90;;;;;;6130890;23;20042;-83
2021/11/20 10:44:28;;;;;;;38.85;18.95;;;13.50;99.90;;;;;;6105490;23;20025;-84
2021/11/20 10:47:11;;;;;;;29.50;16.30;;;13.60;99.90;;;;;;6105303;23;20359;-85
2021/11/20 10:50:03;;;;;;;28.35;16.95;;;13.50;99.90;;;;;;6108673;23;20025;-91
2021/11/20 10:53:14;;;;;;;31.73;15.82;;;13.50;99.90;;;;;;6132570;23;20105;-87
2021/11/20 10:56:03;;;;;;;29.23;15.80;;;14.00;99.90;;;;;;6107829;23;20036;-87
2021/11/20 10:59:25;;;;;;;29.08;14.65;;;14.40;99.90;;;;;;6106889;23;20025;-87
2021/11/20 11:02:26;;;;;;;31.27;15.73;;;15.10;99.90;;;;;;6066503;23;20034;-79
2021/11/20 11:05:02;;;;;;;30.85;17.15;;;16.00;99.90;;;;;;6129266;23;20072;-85
2021/11/20 11:07:46;;;;;;;60.90;33.35;;;17.10;97.00;;;;;;6156297;23;20068;-82
2021/11/20 11:10:20;;;;;;;35.35;21.60;;;17.90;96.20;;;;;;6156469;23;20393;-83
2021/11/20 11:12:51;;;;;;;29.90;16.05;;;18.10;93.40;;;;;;6155580;23;20014;-81
2021/11/20 11:15:54;;;;;;;20.70;12.98;;;18.00;92.50;;;;;;6151339;23;20041;-80
2021/11/20 11:18:31;;;;;;;25.63;15.02;;;17.70;91.90;;;;;;6154231;23;20037;-79
2021/11/20 11:21:04;;;;;;;27.55;14.85;;;18.20;91.80;;;;;;6128326;23;20092;-78
2021/11/20 11:23:39;;;;;;;23.83;13.30;;;18.40;90.70;;;;;;6155046;23;20081;-84
2021/11/20 11:26:10;;;;;;;13.85;7.88;;;18.30;90.20;;;;;;6129120;23;20076;-74
2021/11/20 11:29:14;;;;;;;;;;;18.40;87.80;;;;;;6104147;23;20447;-76
2021/11/20 11:31:44;;;;;;;56.30;31.30;;;18.10;89.00;;;;;;6122138;23;19951;-75
2021/11/20 11:34:26;;;;;;;34.08;20.83;;;18.30;88.10;;;;;;6148899;23;20029;-76
2021/11/20 11:37:02;;;;;;;16.98;8.85;;;18.60;87.40;;;;;;6128442;23;20024;-79
2021/11/20 11:39:35;;;;;;;19.95;11.15;;;18.30;86.80;;;;;;6104181;23;20451;-76
2021/11/20 11:42:21;;;;;;;12.57;8.13;;;17.30;88.30;;;;;;6104573;23;20509;-76
2021/11/20 11:45:19;;;;;;;14.13;6.80;;;16.80;91.20;;;;;;6157077;23;20089;-87
2021/11/20 11:48:10;;;;;;;15.02;7.10;;;17.70;90.10;;;;;;6095607;23;20096;-88
2021/11/20 11:51:12;;;;;;;13.25;7.93;;;18.30;89.20;;;;;;6156875;23;20421;-85
2021/11/20 11:54:08;;;;;;;10.82;7.55;;;19.20;86.70;;;;;;6158271;23;20463;-86
2021/11/20 11:57:02;;;;;;;18.38;8.60;;;19.70;83.20;;;;;;6132110;23;20089;-83
2021/11/20 11:59:49;;;;;;;15.57;8.38;;;19.60;81.70;;;;;;6136040;23;20028;-79
2021/11/20 12:02:30;;;;;;;19.75;11.60;;;19.80;83.30;;;;;;6159628;23;20394;-79
2021/11/20 12:05:22;;;;;;;19.55;11.35;;;19.80;80.80;;;;;;6130798;23;20025;-84
2021/11/20 12:08:00;;;;;;;19.40;11.52;;;19.70;80.90;;;;;;6157968;23;20029;-79
2021/11/20 12:10:37;;;;;;;19.15;11.70;;;19.50;80.80;;;;;;6157467;23;20013;-83
2021/11/20 12:13:10;;;;;;;18.25;10.88;;;19.30;80.20;;;;;;6160997;23;20017;-77
2021/11/20 12:15:49;;;;;;;16.15;10.30;;;19.70;80.60;;;;;;6169512;23;20027;-78
2021/11/20 12:18:40;;;;;;;19.13;10.48;;;20.00;79.80;;;;;;6155686;23;20024;-82
2021/11/20 12:21:22;;;;;;;22.25;13.23;;;19.90;77.50;;;;;;6130318;23;20411;-79
2021/11/20 12:23:59;;;;;;;29.33;19.65;;;20.20;79.00;;;;;;6130174;23;20388;-90
2021/11/20 12:26:41;;;;;;;98.97;53.13;;;20.20;76.70;;;;;;6157467;23;20044;-86
2021/11/20 12:29:34;;;;;;;41.72;29.55;;;20.20;77.10;;;;;;6109992;23;20037;-91
2021/11/20 12:32:33;;;;;;;158.93;101.93;;;19.90;76.40;;;;;;6131916;23;20024;-86
2021/11/20 12:35:25;;;;;;;27.23;18.23;;;19.70;76.90;;;;;;6132281;23;20025;-87
2021/11/20 12:37:52;;;;;;;17.80;10.90;;;20.70;74.70;;;;;;6130953;23;20212;-81
2021/11/20 12:40:42;;;;;;;22.23;11.88;;;23.90;66.50;;;;;;6158582;23;20018;-79
2021/11/20 12:43:28;;;;;;;36.88;24.55;;;26.70;58.40;;;;;;6119773;23;20032;-81
2021/11/20 12:46:43;;;;;;;72.68;48.53;;;26.20;54.90;;;;;;6155784;23;20105;-81
2021/11/20 12:49:29;;;;;;;15.68;9.55;;;24.70;56.50;;;;;;6125287;23;20180;-79
2021/11/20 12:52:24;;;;;;;15.73;8.68;;;26.10;54.70;;;;;;6160384;23;20017;-86
2021/11/20 12:55:03;;;;;;;18.58;10.05;;;27.60;52.30;;;;;;6158342;23;20313;-84
2021/11/20 12:57:31;;;;;;;16.52;8.95;;;28.50;51.10;;;;;;6160480;23;20026;-83
2021/11/20 13:00:21;;;;;;;15.85;9.35;;;27.40;50.40;;;;;;6155956;23;20170;-82
2021/11/20 13:02:57;;;;;;;15.63;9.10;;;27.10;51.20;;;;;;6155721;23;20084;-81
2021/11/20 13:05:29;;;;;;;14.65;8.85;;;24.80;54.50;;;;;;6155972;23;20027;-86
2021/11/20 13:08:10;;;;;;;14.15;7.93;;;22.50;58.70;;;;;;6125426;23;20014;-86
2021/11/20 13:11:15;;;;;;;16.15;8.63;;;21.80;61.50;;;;;;6128586;23;20022;-81
2021/11/20 13:14:03;;;;;;;14.30;7.93;;;21.50;62.70;;;;;;6127909;23;20042;-89
2021/11/20 13:16:33;;;;;;;28.42;13.25;;;21.00;62.70;;;;;;6102895;23;20021;-80
2021/11/20 13:19:09;;;;;;;103.90;73.88;;;21.00;64.20;;;;;;6128703;23;20098;-86
2021/11/20 13:21:54;;;;;;;40.55;28.27;;;20.90;63.70;;;;;;6124090;23;20095;-81
2021/11/20 13:24:57;;;;;;;28.50;20.70;;;21.50;64.00;;;;;;6127526;23;20042;-82
2021/11/20 13:27:55;;;;;;;13.73;8.50;;;21.70;62.50;;;;;;6101851;23;20022;-88
2021/11/20 13:30:31;;;;;;;13.43;8.02;;;21.00;63.00;;;;;;6123903;23;20348;-84
2021/11/20 13:33:00;;;;;;;13.00;7.72;;;21.20;63.00;;;;;;6125561;23;20391;-84
2021/11/20 13:35:46;;;;;;;15.40;7.47;;;21.00;63.30;;;;;;6099307;23;20017;-87
2021/11/20 13:38:16;;;;;;;17.27;7.63;;;21.20;62.70;;;;;;6125000;23;20042;-84
2021/11/20 13:40:47;;;;;;;12.60;7.47;;;21.00;63.10;;;;;;6124837;23;20018;-87
2021/11/20 13:43:16;;;;;;;16.05;7.70;;;20.70;63.60;;;;;;6126211;23;20034;-89
2021/11/20 13:45:47;;;;;;;13.00;7.47;;;20.60;64.60;;;;;;6099372;23;20088;-82
2021/11/20 13:48:18;;;;;;;12.35;7.70;;;20.40;65.30;;;;;;6122364;23;20063;-87
2021/11/20 13:50:46;;;;;;;14.13;6.93;;;20.20;65.50;;;;;;6123967;23;20101;-85
2021/11/20 13:53:17;;;;;;;13.13;6.70;;;20.30;65.90;;;;;;6124044;23;20097;-88
2021/11/20 13:55:49;;;;;;;14.98;7.30;;;20.00;66.00;;;;;;6124503;23;20014;-84
2021/11/20 13:58:20;;;;;;;15.02;8.10;;;19.90;66.50;;;;;;6126814;23;20024;-85
2021/11/20 14:00:51;;;;;;;13.70;7.40;;;19.70;67.50;;;;;;6126318;23;20093;-87
2021/11/20 14:03:18;;;;;;;16.17;8.73;;;19.50;67.60;;;;;;6129357;23;20025;-84
2021/11/20 14:05:46;;;;;;;13.50;7.82;;;19.10;68.60;;;;;;6127488;23;20022;-84
2021/11/20 14:08:14;;;;;;;12.40;7.05;;;19.00;69.30;;;;;;6126409;23;20097;-84
2021/11/20 14:10:51;;;;;;;16.85;7.03;;;19.20;69.40;;;;;;6127158;23;20117;-87
2021/11/20 14:13:32;;;;;;;11.13;6.57;;;19.30;68.80;;;;;;6127782;23;20048;-90
2021/11/20 14:16:01;;;;;;;13.35;7.20;;;19.10;69.10;;;;;;6127505;23;20390;-91
2021/11/20 14:18:30;;;;;;;11.82;7.53;;;19.10;69.20;;;;;;6103032;23;20018;-90